createdAt,value
2016-11-24T00:00:41.172Z,67.64
2016-11-24T00:01:40.872Z,67.55
2016-11-24T00:02:40.887Z,67.16
2016-11-24T00:03:40.914Z,67.93
2016-11-24T00:04:40.924Z,68.02
2016-11-24T00:05:40.950Z,67.64
2016-11-24T00:06:40.963Z,67.74
2016-11-24T00:07:40.980Z,67.26
2016-11-24T00:08:40.998Z,67.93
2016-11-24T00:09:41.016Z,67.83
2016-11-24T00:10:41.350Z,67.45
2016-11-24T00:11:41.372Z,67.64
2016-11-24T00:12:41.072Z,67.74
2016-11-24T00:13:41.451Z,67.55
2016-11-24T00:14:41.104Z,67.83
2016-11-24T00:15:41.439Z,67.55
2016-11-24T00:16:41.454Z,67.16
2016-11-24T00:17:41.159Z,67.1
2016-11-24T00:18:41.182Z,67.2
2016-11-24T00:19:41.509Z,67.74
2016-11-24T00:20:41.525Z,67.64
2016-11-24T00:21:41.227Z,67.55
2016-11-24T00:22:41.562Z,67.74
2016-11-24T00:23:41.581Z,67.64
2016-11-24T00:24:41.599Z,67.35
2016-11-24T00:25:41.299Z,67.45
2016-11-24T00:26:41.659Z,67.74
2016-11-24T00:27:41.657Z,67.83
2016-11-24T00:28:41.668Z,67.74
2016-11-24T00:29:41.368Z,68.3
2016-11-24T00:30:41.389Z,68.69
2016-11-24T00:31:41.408Z,68.65
2016-11-24T00:32:41.735Z,69.51
2016-11-24T00:33:41.778Z,69.32
2016-11-24T00:34:41.472Z,69.93
2016-11-24T00:35:41.477Z,69.7
2016-11-24T00:36:41.494Z,69.6
2016-11-24T00:37:41.826Z,69.32
2016-11-24T00:38:41.526Z,69.35
2016-11-24T00:39:41.544Z,68.59
2016-11-24T00:40:41.880Z,68.75
2016-11-24T00:41:41.896Z,68.78
2016-11-24T00:42:41.596Z,69.51
2016-11-24T00:43:41.615Z,69.32
2016-11-24T00:44:41.952Z,69.51
2016-11-24T00:45:41.968Z,68.56
2016-11-24T00:46:41.672Z,69.04
2016-11-24T00:47:41.999Z,69.23
2016-11-24T00:48:42.023Z,69.6
2016-11-24T00:49:42.038Z,70.18
2016-11-24T00:50:41.739Z,69.99
2016-11-24T00:51:41.756Z,69.99
2016-11-24T00:52:41.774Z,69.51
2016-11-24T00:53:42.105Z,69.99
2016-11-24T00:54:42.125Z,70.37
2016-11-24T00:55:42.142Z,70.9
2016-11-24T00:56:41.842Z,71.28
2016-11-24T00:57:42.177Z,71
2016-11-24T00:58:41.877Z,71
2016-11-24T00:59:42.216Z,70.56
2016-11-24T01:00:41.913Z,71.09
2016-11-24T01:01:41.930Z,70.9
2016-11-24T01:02:41.952Z,70.81
2016-11-24T01:03:41.969Z,71.42
2016-11-24T01:04:42.297Z,71
2016-11-24T01:05:42.001Z,70.9
2016-11-24T01:06:42.017Z,70.24
2016-11-24T01:07:42.354Z,70.9
2016-11-24T01:08:42.370Z,71.09
2016-11-24T01:09:42.069Z,70.47
2016-11-24T01:10:42.092Z,70.56
2016-11-24T01:11:42.107Z,70.84
2016-11-24T01:12:42.121Z,71.47
2016-11-24T01:13:42.142Z,71
2016-11-24T01:14:42.159Z,70.81
2016-11-24T01:15:42.489Z,71.28
2016-11-24T01:16:42.190Z,71.32
2016-11-24T01:17:42.206Z,70.47
2016-11-24T01:18:42.248Z,70.37
2016-11-24T01:19:42.257Z,70.47
2016-11-24T01:20:42.263Z,70.84
2016-11-24T01:21:42.590Z,70.27
2016-11-24T01:22:42.296Z,70.27
2016-11-24T01:23:42.364Z,70.08
2016-11-24T01:24:42.327Z,70.94
2016-11-24T01:25:42.666Z,70.47
2016-11-24T01:26:42.382Z,70.65
2016-11-24T01:27:42.381Z,69.99
2016-11-24T01:28:42.397Z,69.99
2016-11-24T01:29:42.728Z,70.08
2016-11-24T01:30:42.760Z,69.79
2016-11-24T01:31:42.450Z,69.51
2016-11-24T01:32:42.782Z,69.79
2016-11-24T01:33:42.536Z,69.79
2016-11-24T01:34:42.505Z,69.79
2016-11-24T01:35:42.518Z,70.08
2016-11-24T01:36:42.849Z,69.89
2016-11-24T01:37:42.869Z,69.79
2016-11-24T01:38:42.572Z,69.7
2016-11-24T01:39:42.901Z,69.99
2016-11-24T01:40:42.922Z,69.99
2016-11-24T01:41:42.622Z,69.89
2016-11-24T01:42:42.957Z,69.99
2016-11-24T01:43:42.658Z,69.6
2016-11-24T01:44:42.674Z,69.32
2016-11-24T01:45:43.006Z,69.6
2016-11-24T01:46:43.023Z,69.79
2016-11-24T01:47:42.734Z,69.42
2016-11-24T01:48:43.059Z,69.13
2016-11-24T01:49:42.758Z,69.42
2016-11-24T01:50:42.776Z,69.99
2016-11-24T01:51:43.141Z,70.27
2016-11-24T01:52:43.128Z,70.37
2016-11-24T01:53:42.830Z,69.79
2016-11-24T01:54:42.849Z,69.89
2016-11-24T01:55:42.876Z,69.79
2016-11-24T01:56:43.193Z,69.51
2016-11-24T01:57:42.899Z,69.32
2016-11-24T01:58:43.251Z,69.32
2016-11-24T01:59:43.250Z,69.6
2016-11-24T02:00:42.950Z,69.6
2016-11-24T02:01:43.286Z,69.7
2016-11-24T02:02:43.084Z,69.7
2016-11-24T02:03:43.011Z,69.89
2016-11-24T02:04:43.339Z,69.7
2016-11-24T02:05:43.353Z,69.89
2016-11-24T02:06:43.055Z,70.33
2016-11-24T02:07:43.072Z,69.99
2016-11-24T02:08:43.091Z,69.79
2016-11-24T02:09:43.103Z,69.32
2016-11-24T02:10:43.124Z,69.51
2016-11-24T02:11:43.142Z,69.7
2016-11-24T02:12:43.157Z,69.99
2016-11-24T02:13:43.173Z,69.6
2016-11-24T02:14:43.512Z,69.99
2016-11-24T02:15:43.210Z,69.79
2016-11-24T02:16:43.236Z,69.7
2016-11-24T02:17:43.564Z,69.32
2016-11-24T02:18:43.268Z,69.32
2016-11-24T02:19:43.281Z,68.56
2016-11-24T02:20:43.729Z,69.23
2016-11-24T02:21:43.629Z,69.51
2016-11-24T02:22:43.332Z,69.7
2016-11-24T02:23:43.349Z,69.76
2016-11-24T02:24:43.366Z,70.05
2016-11-24T02:25:43.701Z,69.79
2016-11-24T02:26:43.718Z,69.99
2016-11-24T02:27:43.731Z,70.24
2016-11-24T02:28:43.435Z,69.57
2016-11-24T02:29:43.455Z,70.52
2016-11-24T02:30:43.469Z,70.52
2016-11-24T02:31:43.802Z,70.52
2016-11-24T02:32:43.824Z,70.43
2016-11-24T02:33:43.839Z,70.24
2016-11-24T02:34:43.538Z,70.75
2016-11-24T02:35:43.878Z,70.14
2016-11-24T02:36:43.570Z,70.37
2016-11-24T02:37:43.597Z,70.84
2016-11-24T02:38:43.607Z,70.56
2016-11-24T02:39:43.944Z,70.47
2016-11-24T02:40:43.958Z,69.99
2016-11-24T02:41:43.661Z,70.18
2016-11-24T02:42:43.677Z,70.08
2016-11-24T02:43:44.010Z,69.79
2016-11-24T02:44:43.712Z,69.99
2016-11-24T02:45:43.731Z,69.6
2016-11-24T02:46:44.061Z,70.24
2016-11-24T02:47:44.100Z,71
2016-11-24T02:48:43.795Z,71.86
2016-11-24T02:49:43.799Z,71.57
2016-11-24T02:50:44.129Z,71.86
2016-11-24T02:51:43.833Z,71.38
2016-11-24T02:52:43.848Z,71.09
2016-11-24T02:53:43.868Z,71.47
2016-11-24T02:54:44.200Z,71
2016-11-24T02:55:43.921Z,71.57
2016-11-24T02:56:44.239Z,71.57
2016-11-24T02:57:44.252Z,72.42
2016-11-24T02:58:43.954Z,72.24
2016-11-24T02:59:44.287Z,72.05
2016-11-24T03:00:43.987Z,71.38
2016-11-24T03:01:44.010Z,71.76
2016-11-24T03:02:44.023Z,72.05
2016-11-24T03:03:44.037Z,71.86
2016-11-24T03:04:44.373Z,71.95
2016-11-24T03:05:44.073Z,72.05
2016-11-24T03:06:44.407Z,72.05
2016-11-24T03:07:44.108Z,71.86
2016-11-24T03:08:44.437Z,72.14
2016-11-24T03:09:44.141Z,72.33
2016-11-24T03:10:44.161Z,71.47
2016-11-24T03:11:44.175Z,71.76
2016-11-24T03:12:44.510Z,71.76
2016-11-24T03:13:44.213Z,71.57
2016-11-24T03:14:44.544Z,71.28
2016-11-24T03:15:44.559Z,71.19
2016-11-24T03:16:44.267Z,71.19
2016-11-24T03:17:44.596Z,70.72
2016-11-24T03:18:44.294Z,70.52
2016-11-24T03:19:44.628Z,70.14
2016-11-24T03:20:44.332Z,70.33
2016-11-24T03:21:44.664Z,70.14
2016-11-24T03:22:44.364Z,70.62
2016-11-24T03:23:44.380Z,70.14
2016-11-24T03:24:44.415Z,70.75
2016-11-24T03:25:44.424Z,70.27
2016-11-24T03:26:44.432Z,70.56
2016-11-24T03:27:44.451Z,69.79
2016-11-24T03:28:44.785Z,69.99
2016-11-24T03:29:44.800Z,69.51
2016-11-24T03:30:44.499Z,70.27
2016-11-24T03:31:44.854Z,70.24
2016-11-24T03:32:44.850Z,70.43
2016-11-24T03:33:44.865Z,70.14
2016-11-24T03:34:44.887Z,71
2016-11-24T03:35:44.589Z,71.47
2016-11-24T03:36:44.604Z,71.09
2016-11-24T03:37:44.940Z,71.09
2016-11-24T03:38:44.638Z,70.9
2016-11-24T03:39:44.972Z,70.62
2016-11-24T03:40:44.677Z,70.62
2016-11-24T03:41:45.008Z,70.94
2016-11-24T03:42:44.709Z,70.65
2016-11-24T03:43:44.722Z,70.84
2016-11-24T03:44:45.058Z,70.27
2016-11-24T03:45:45.077Z,70.27
2016-11-24T03:46:44.780Z,71.19
2016-11-24T03:47:45.110Z,71.09
2016-11-24T03:48:44.811Z,71.03
2016-11-24T03:49:44.827Z,70.75
2016-11-24T03:50:45.162Z,70.47
2016-11-24T03:51:44.861Z,71.13
2016-11-24T03:52:45.196Z,70.47
2016-11-24T03:53:44.896Z,70.37
2016-11-24T03:54:44.913Z,70.27
2016-11-24T03:55:45.247Z,70.18
2016-11-24T03:56:44.950Z,70.27
2016-11-24T03:57:45.291Z,70.27
2016-11-24T03:58:45.297Z,69.79
2016-11-24T03:59:45.000Z,70.18
2016-11-24T04:00:45.333Z,70.27
2016-11-24T04:01:45.040Z,69.79
2016-11-24T04:02:45.365Z,70.18
2016-11-24T04:03:45.385Z,70.65
2016-11-24T04:04:45.085Z,71.09
2016-11-24T04:05:45.418Z,71.47
2016-11-24T04:06:45.119Z,71.38
2016-11-24T04:07:45.454Z,71.38
2016-11-24T04:08:45.162Z,71.09
2016-11-24T04:09:45.488Z,70.94
2016-11-24T04:10:45.189Z,70.75
2016-11-24T04:11:45.524Z,70.56
2016-11-24T04:12:45.539Z,70.37
2016-11-24T04:13:45.555Z,71.13
2016-11-24T04:14:45.572Z,70.94
2016-11-24T04:15:45.588Z,70.94
2016-11-24T04:16:45.608Z,70.65
2016-11-24T04:17:45.308Z,70.84
2016-11-24T04:18:45.325Z,70.47
2016-11-24T04:19:45.656Z,70.18
2016-11-24T04:20:45.674Z,70.24
2016-11-24T04:21:45.377Z,70.94
2016-11-24T04:22:45.708Z,70.9
2016-11-24T04:23:45.411Z,70.27
2016-11-24T04:24:45.427Z,70.72
2016-11-24T04:25:45.763Z,70.47
2016-11-24T04:26:45.776Z,70.75
2016-11-24T04:27:45.478Z,70.47
2016-11-24T04:28:45.499Z,70.18
2016-11-24T04:29:45.511Z,70.27
2016-11-24T04:30:45.845Z,70.27
2016-11-24T04:31:45.864Z,70.94
2016-11-24T04:32:45.563Z,71.86
2016-11-24T04:33:45.582Z,71.57
2016-11-24T04:34:45.918Z,71.95
2016-11-24T04:35:45.614Z,71.47
2016-11-24T04:36:45.949Z,71.95
2016-11-24T04:37:45.652Z,72.33
2016-11-24T04:38:45.981Z,72.33
2016-11-24T04:39:45.684Z,71.47
2016-11-24T04:40:45.700Z,71.47
2016-11-24T04:41:46.043Z,71.67
2016-11-24T04:42:45.733Z,71.61
2016-11-24T04:43:45.752Z,71.42
2016-11-24T04:44:45.768Z,70.94
2016-11-24T04:45:45.793Z,71.22
2016-11-24T04:46:45.804Z,71.03
2016-11-24T04:47:45.819Z,70.94
2016-11-24T04:48:45.835Z,70.47
2016-11-24T04:49:45.853Z,70.65
2016-11-24T04:50:46.186Z,70.56
2016-11-24T04:51:46.201Z,71.13
2016-11-24T04:52:46.222Z,71.38
2016-11-24T04:53:45.921Z,71.22
2016-11-24T04:54:46.255Z,71.47
2016-11-24T04:55:45.958Z,71.22
2016-11-24T04:56:45.981Z,70.75
2016-11-24T04:57:45.992Z,71.09
2016-11-24T04:58:46.327Z,70.75
2016-11-24T04:59:46.336Z,71.22
2016-11-24T05:00:46.040Z,71.03
2016-11-24T05:01:46.067Z,70.84
2016-11-24T05:02:46.390Z,70.56
2016-11-24T05:03:46.099Z,70.65
2016-11-24T05:04:46.423Z,70.18
2016-11-24T05:05:46.125Z,70.56
2016-11-24T05:06:46.455Z,70.37
2016-11-24T05:07:46.476Z,70.47
2016-11-24T05:08:46.179Z,70.75
2016-11-24T05:09:46.192Z,70.65
2016-11-24T05:10:46.213Z,70.47
2016-11-24T05:11:46.546Z,69.79
2016-11-24T05:12:46.556Z,70.18
2016-11-24T05:13:46.579Z,70.75
2016-11-24T05:14:46.278Z,70.65
2016-11-24T05:15:46.613Z,70.18
2016-11-24T05:16:46.319Z,69.79
2016-11-24T05:17:46.328Z,69.79
2016-11-24T05:18:46.670Z,69.7
2016-11-24T05:19:46.364Z,70.27
2016-11-24T05:20:46.693Z,70.75
2016-11-24T05:21:46.715Z,70.27
2016-11-24T05:22:46.416Z,70.08
2016-11-24T05:23:46.747Z,69.89
2016-11-24T05:24:46.446Z,70.27
2016-11-24T05:25:46.465Z,70.37
2016-11-24T05:26:46.798Z,70.18
2016-11-24T05:27:46.498Z,69.79
2016-11-24T05:28:46.834Z,70.47
2016-11-24T05:29:46.849Z,69.79
2016-11-24T05:30:46.574Z,69.7
2016-11-24T05:31:46.884Z,69.42
2016-11-24T05:32:46.588Z,69.23
2016-11-24T05:33:46.604Z,69.23
2016-11-24T05:34:46.623Z,69.13
2016-11-24T05:35:46.639Z,68.84
2016-11-24T05:36:46.972Z,69.42
2016-11-24T05:37:46.990Z,68.65
2016-11-24T05:38:46.709Z,68.75
2016-11-24T05:39:46.708Z,69.13
2016-11-24T05:40:47.037Z,68.84
2016-11-24T05:41:46.743Z,68.84
2016-11-24T05:42:47.077Z,69.23
2016-11-24T05:43:46.776Z,69.51
2016-11-24T05:44:46.792Z,70.05
2016-11-24T05:45:47.124Z,70.14
2016-11-24T05:46:47.144Z,70.24
2016-11-24T05:47:46.847Z,69.89
2016-11-24T05:48:47.186Z,70.14
2016-11-24T05:49:47.195Z,70.14
2016-11-24T05:50:47.213Z,71
2016-11-24T05:51:46.914Z,70.9
2016-11-24T05:52:47.247Z,70.56
2016-11-24T05:53:47.264Z,69.89
2016-11-24T05:54:46.972Z,69.99
2016-11-24T05:55:47.299Z,69.51
2016-11-24T05:56:46.997Z,69.67
2016-11-24T05:57:47.333Z,69.79
2016-11-24T05:58:47.349Z,69.79
2016-11-24T05:59:47.059Z,69.67
2016-11-24T06:00:47.067Z,70.14
2016-11-24T06:01:47.399Z,70.14
2016-11-24T06:02:47.420Z,70.33
2016-11-24T06:03:47.118Z,69.95
2016-11-24T06:04:47.451Z,70.24
2016-11-24T06:05:47.470Z,69.95
2016-11-24T06:06:47.484Z,69.85
2016-11-24T06:07:47.518Z,69.57
2016-11-24T06:08:47.211Z,69.85
2016-11-24T06:09:47.222Z,69.95
2016-11-24T06:10:47.552Z,69.76
2016-11-24T06:11:47.254Z,70.18
2016-11-24T06:12:47.591Z,69.6
2016-11-24T06:13:47.604Z,70.18
2016-11-24T06:14:47.326Z,69.99
2016-11-24T06:15:47.639Z,69.6
2016-11-24T06:16:47.657Z,69.7
2016-11-24T06:17:47.675Z,69.79
2016-11-24T06:18:47.690Z,69.51
2016-11-24T06:19:47.707Z,69.23
2016-11-24T06:20:47.724Z,68.46
2016-11-24T06:21:47.754Z,69.48
2016-11-24T06:22:47.443Z,69.23
2016-11-24T06:23:47.458Z,69.29
2016-11-24T06:24:47.477Z,69.1
2016-11-24T06:25:47.493Z,69.29
2016-11-24T06:26:47.509Z,69.19
2016-11-24T06:27:47.844Z,69.76
2016-11-24T06:28:47.861Z,69.89
2016-11-24T06:29:47.564Z,69.6
2016-11-24T06:30:47.891Z,69.32
2016-11-24T06:31:47.595Z,69.42
2016-11-24T06:32:47.958Z,70.14
2016-11-24T06:33:47.945Z,69.76
2016-11-24T06:34:47.965Z,70.05
2016-11-24T06:35:47.663Z,70.14
2016-11-24T06:36:47.999Z,70.05
2016-11-24T06:37:47.699Z,69.67
2016-11-24T06:38:48.031Z,69.67
2016-11-24T06:39:48.044Z,70.14
2016-11-24T06:40:47.751Z,70.14
2016-11-24T06:41:48.083Z,70.9
2016-11-24T06:42:48.097Z,70.9
2016-11-24T06:43:48.114Z,71.28
2016-11-24T06:44:48.146Z,71.19
2016-11-24T06:45:48.150Z,71.09
2016-11-24T06:46:47.850Z,70.24
2016-11-24T06:47:47.872Z,70.05
2016-11-24T06:48:47.885Z,70.52
2016-11-24T06:49:48.218Z,70.43
2016-11-24T06:50:48.234Z,70.05
2016-11-24T06:51:47.955Z,69.95
2016-11-24T06:52:48.266Z,69.57
2016-11-24T06:53:47.971Z,69.95
2016-11-24T06:54:47.989Z,69.95
2016-11-24T06:55:48.005Z,69.67
2016-11-24T06:56:48.022Z,70.24
2016-11-24T06:57:48.356Z,69.7
2016-11-24T06:58:48.058Z,69.99
2016-11-24T06:59:48.388Z,69.79
2016-11-24T07:00:48.406Z,69.29
2016-11-24T07:01:48.421Z,69.76
2016-11-24T07:02:48.441Z,70.14
2016-11-24T07:03:48.456Z,69.76
2016-11-24T07:04:48.475Z,70.43
2016-11-24T07:05:48.177Z,70.33
2016-11-24T07:06:48.510Z,70.43
2016-11-24T07:07:48.539Z,71.86
2016-11-24T07:08:48.228Z,71
2016-11-24T07:09:48.563Z,70.14
2016-11-24T07:10:48.261Z,70.05
2016-11-24T07:11:48.283Z,69.48
2016-11-24T07:12:48.621Z,69.85
2016-11-24T07:13:48.315Z,70.05
2016-11-24T07:14:48.333Z,69.85
2016-11-24T07:15:48.348Z,69.48
2016-11-24T07:16:48.681Z,69.32
2016-11-24T07:17:48.709Z,69.67
2016-11-24T07:18:48.716Z,69.67
2016-11-24T07:19:48.733Z,69.42
2016-11-24T07:20:48.749Z,69.51
2016-11-24T07:21:48.776Z,69.13
2016-11-24T07:22:48.470Z,69.67
2016-11-24T07:23:48.486Z,69.95
2016-11-24T07:24:48.503Z,69.95
2016-11-24T07:25:48.521Z,70.33
2016-11-24T07:26:48.852Z,69.32
2016-11-24T07:27:48.553Z,69.6
2016-11-24T07:28:48.904Z,69.6
2016-11-24T07:29:48.906Z,69.42
2016-11-24T07:30:48.607Z,69.32
2016-11-24T07:31:48.936Z,69.04
2016-11-24T07:32:48.643Z,69.6
2016-11-24T07:33:48.657Z,69.6
2016-11-24T07:34:48.676Z,69.51
2016-11-24T07:35:48.690Z,69.32
2016-11-24T07:36:49.229Z,69.32
2016-11-24T07:37:48.751Z,68.84
2016-11-24T07:38:48.742Z,68.65
2016-11-24T07:39:48.762Z,68.75
2016-11-24T07:40:48.783Z,68.56
2016-11-24T07:41:49.110Z,68.75
2016-11-24T07:42:48.815Z,68.84
2016-11-24T07:43:48.829Z,68.56
2016-11-24T07:44:48.847Z,69.51
2016-11-24T07:45:48.861Z,69.23
2016-11-24T07:46:49.195Z,68.65
2016-11-24T07:47:48.900Z,69.13
2016-11-24T07:48:49.230Z,68.56
2016-11-24T07:49:49.253Z,68.18
2016-11-24T07:50:49.265Z,68.84
2016-11-24T07:51:48.965Z,68.37
2016-11-24T07:52:49.297Z,68.37
2016-11-24T07:53:49.317Z,69.7
2016-11-24T07:54:49.018Z,69.6
2016-11-24T07:55:49.349Z,69.85
2016-11-24T07:56:49.053Z,69.48
2016-11-24T07:57:49.383Z,69.57
2016-11-24T07:58:49.091Z,69.76
2016-11-24T07:59:49.112Z,69.76
2016-11-24T08:00:49.123Z,69.76
2016-11-24T08:01:49.461Z,70.43
2016-11-24T08:02:49.155Z,70.33
2016-11-24T08:03:49.171Z,70.33
2016-11-24T08:04:49.190Z,69.79
2016-11-24T08:05:49.524Z,69.89
2016-11-24T08:06:49.226Z,69.51
2016-11-24T08:07:49.240Z,69.89
2016-11-24T08:08:49.575Z,69.6
2016-11-24T08:09:49.274Z,68.84
2016-11-24T08:10:49.291Z,69.32
2016-11-24T08:11:49.310Z,69.95
2016-11-24T08:12:49.642Z,69.99
2016-11-24T08:13:49.660Z,69.79
2016-11-24T08:14:49.677Z,69.6
2016-11-24T08:15:49.380Z,69.79
2016-11-24T08:16:49.399Z,69.32
2016-11-24T08:17:49.726Z,69.89
2016-11-24T08:18:49.742Z,70.08
2016-11-24T08:19:49.447Z,69.7
2016-11-24T08:20:49.779Z,69.51
2016-11-24T08:21:49.504Z,69.7
2016-11-24T08:22:49.497Z,69.7
2016-11-24T08:23:49.830Z,69.51
2016-11-24T08:24:49.532Z,69.51
2016-11-24T08:25:49.546Z,69.32
2016-11-24T08:26:49.879Z,69.32
2016-11-24T08:27:50.099Z,69.32
2016-11-24T08:28:49.601Z,69.7
2016-11-24T08:29:49.934Z,69.51
2016-11-24T08:30:49.950Z,70.14
2016-11-24T08:31:49.965Z,69.95
2016-11-24T08:32:49.985Z,70.33
2016-11-24T08:33:49.684Z,70.18
2016-11-24T08:34:50.019Z,70.14
2016-11-24T08:35:49.719Z,70.27
2016-11-24T08:36:49.739Z,70.18
2016-11-24T08:37:50.070Z,70.47
2016-11-24T08:38:49.772Z,69.79
2016-11-24T08:39:49.788Z,69.79
2016-11-24T08:40:49.807Z,69.42
2016-11-24T08:41:50.138Z,69.23
2016-11-24T08:42:50.160Z,68.94
2016-11-24T08:43:49.864Z,68.84
2016-11-24T08:44:49.876Z,69.23
2016-11-24T08:45:50.206Z,69.51
2016-11-24T08:46:49.911Z,69.42
2016-11-24T08:47:49.926Z,69.23
2016-11-24T08:48:49.942Z,69.13
2016-11-24T08:49:50.281Z,69.32
2016-11-24T08:50:50.315Z,69.13
2016-11-24T08:51:50.311Z,69.42
2016-11-24T08:52:50.013Z,69.6
2016-11-24T08:53:50.031Z,69.7
2016-11-24T08:54:50.364Z,69.79
2016-11-24T08:55:50.066Z,69.99
2016-11-24T08:56:50.087Z,70.37
2016-11-24T08:57:50.122Z,69.89
2016-11-24T08:58:50.434Z,69.6
2016-11-24T08:59:50.449Z,69.7
2016-11-24T09:00:50.465Z,70.47
2016-11-24T09:01:50.171Z,70.56
2016-11-24T09:02:50.187Z,70.18
2016-11-24T09:03:50.201Z,70.27
2016-11-24T09:04:50.224Z,69.79
2016-11-24T09:05:50.239Z,70.27
2016-11-24T09:06:50.254Z,70.08
2016-11-24T09:07:50.268Z,70.94
2016-11-24T09:08:50.288Z,70.94
2016-11-24T09:09:50.621Z,71.03
2016-11-24T09:10:50.326Z,70.84
2016-11-24T09:11:50.657Z,70.94
2016-11-24T09:12:50.355Z,70.27
2016-11-24T09:13:50.689Z,70.47
2016-11-24T09:14:50.706Z,69.99
2016-11-24T09:15:50.733Z,69.89
2016-11-24T09:16:50.427Z,69.89
2016-11-24T09:17:50.761Z,69.79
2016-11-24T09:18:50.461Z,69.74
2016-11-24T09:19:50.792Z,69.7
2016-11-24T09:20:50.495Z,69.64
2016-11-24T09:21:50.827Z,70.08
2016-11-24T09:22:50.531Z,70.47
2016-11-24T09:23:50.543Z,69.79
2016-11-24T09:24:50.562Z,70.37
2016-11-24T09:25:50.895Z,70.08
2016-11-24T09:26:50.630Z,69.79
2016-11-24T09:27:50.626Z,69.7
2016-11-24T09:28:50.946Z,69.83
2016-11-24T09:29:50.966Z,69.54
2016-11-24T09:30:50.671Z,69.54
2016-11-24T09:31:51.000Z,69.45
2016-11-24T09:32:50.734Z,69.45
2016-11-24T09:33:50.719Z,69.45
2016-11-24T09:34:50.745Z,69.64
2016-11-24T09:35:51.070Z,69.89
2016-11-24T09:36:50.772Z,69.6
2016-11-24T09:37:50.791Z,70.18
2016-11-24T09:38:50.804Z,69.83
2016-11-24T09:39:50.826Z,69.54
2016-11-24T09:40:50.842Z,69.54
2016-11-24T09:41:50.858Z,69.35
2016-11-24T09:42:50.953Z,69.17
2016-11-24T09:43:51.209Z,69.17
2016-11-24T09:44:50.910Z,69.54
2016-11-24T09:45:50.925Z,70.02
2016-11-24T09:46:50.947Z,69.74
2016-11-24T09:47:50.962Z,68.88
2016-11-24T09:48:50.982Z,69.45
2016-11-24T09:49:50.999Z,69.99
2016-11-24T09:50:51.328Z,69.83
2016-11-24T09:51:51.032Z,69.93
2016-11-24T09:52:51.049Z,69.79
2016-11-24T09:53:51.068Z,70.21
2016-11-24T09:54:51.087Z,69.83
2016-11-24T09:55:51.101Z,69.83
2016-11-24T09:56:51.435Z,69.54
2016-11-24T09:57:51.137Z,69.45
2016-11-24T09:58:51.474Z,69.07
2016-11-24T09:59:51.177Z,68.59
2016-11-24T10:00:51.192Z,68.5
2016-11-24T10:01:51.522Z,68.59
2016-11-24T10:02:51.225Z,68.78
2016-11-24T10:03:51.244Z,69.17
2016-11-24T10:04:51.260Z,68.88
2016-11-24T10:05:51.280Z,68.69
2016-11-24T10:06:51.298Z,69.35
2016-11-24T10:07:51.626Z,69.74
2016-11-24T10:08:51.653Z,69.45
2016-11-24T10:09:51.666Z,68.78
2016-11-24T10:10:51.682Z,69.54
2016-11-24T10:11:51.393Z,70.21
2016-11-24T10:12:51.401Z,70.02
2016-11-24T10:13:51.420Z,69.54
2016-11-24T10:14:51.443Z,69.54
2016-11-24T10:15:51.455Z,68.88
2016-11-24T10:16:51.474Z,69.45
2016-11-24T10:17:51.489Z,69.45
2016-11-24T10:18:51.825Z,69.64
2016-11-24T10:19:51.532Z,68.69
2016-11-24T10:20:51.576Z,69.07
2016-11-24T10:21:51.563Z,69.64
2016-11-24T10:22:51.906Z,68.69
2016-11-24T10:23:51.596Z,68.21
2016-11-24T10:24:51.928Z,68.12
2016-11-24T10:25:51.944Z,68.3
2016-11-24T10:26:51.653Z,68.59
2016-11-24T10:27:51.668Z,68.59
2016-11-24T10:28:51.685Z,68.53
2016-11-24T10:29:51.702Z,68.53
2016-11-24T10:30:51.719Z,67.86
2016-11-24T10:31:52.052Z,67.96
2016-11-24T10:32:51.758Z,68.05
2016-11-24T10:33:51.772Z,67.96
2016-11-24T10:34:51.812Z,67.77
2016-11-24T10:35:51.821Z,68.5
2016-11-24T10:36:52.163Z,68.12
2016-11-24T10:37:52.157Z,68.59
2016-11-24T10:38:51.861Z,69.45
2016-11-24T10:39:52.195Z,69.45
2016-11-24T10:40:51.896Z,69.83
2016-11-24T10:41:52.249Z,69.54
2016-11-24T10:42:51.945Z,69.74
2016-11-24T10:43:51.959Z,69.74
2016-11-24T10:44:51.963Z,69.54
2016-11-24T10:45:52.301Z,69.35
2016-11-24T10:46:52.001Z,69.35
2016-11-24T10:47:52.020Z,69.35
2016-11-24T10:48:52.352Z,69.64
2016-11-24T10:49:52.372Z,69.17
2016-11-24T10:50:52.074Z,69.35
2016-11-24T10:51:52.404Z,69.45
2016-11-24T10:52:52.106Z,68.98
2016-11-24T10:53:52.126Z,68.4
2016-11-24T10:54:52.143Z,68.69
2016-11-24T10:55:52.164Z,68.59
2016-11-24T10:56:52.493Z,69.64
2016-11-24T10:57:52.512Z,68.78
2016-11-24T10:58:52.219Z,68.34
2016-11-24T10:59:52.549Z,68.24
2016-11-24T11:00:52.566Z,68.15
2016-11-24T11:01:52.583Z,68.78
2016-11-24T11:02:52.599Z,68.5
2016-11-24T11:03:52.301Z,68.15
2016-11-24T11:04:52.322Z,68.3
2016-11-24T11:05:52.342Z,68.78
2016-11-24T11:06:52.356Z,68.3
2016-11-24T11:07:52.376Z,68.88
2016-11-24T11:08:52.707Z,68.69
2016-11-24T11:09:52.411Z,69.35
2016-11-24T11:10:52.742Z,69.54
2016-11-24T11:11:52.452Z,69.64
2016-11-24T11:12:52.467Z,69.64
2016-11-24T11:13:52.479Z,69.54
2016-11-24T11:14:52.814Z,69.83
2016-11-24T11:15:52.830Z,68.59
2016-11-24T11:16:52.853Z,68.88
2016-11-24T11:17:52.556Z,68.78
2016-11-24T11:18:52.890Z,68.69
2016-11-24T11:19:52.902Z,69.01
2016-11-24T11:20:52.611Z,68.82
2016-11-24T11:21:52.624Z,68.98
2016-11-24T11:22:52.969Z,68.63
2016-11-24T11:23:52.661Z,68.34
2016-11-24T11:24:52.676Z,68.24
2016-11-24T11:25:52.699Z,68.44
2016-11-24T11:26:53.033Z,68.69
2016-11-24T11:27:53.046Z,68.59
2016-11-24T11:28:52.745Z,69.07
2016-11-24T11:29:52.764Z,69.07
2016-11-24T11:30:52.784Z,68.98
2016-11-24T11:31:52.826Z,69.54
2016-11-24T11:32:53.133Z,69.74
2016-11-24T11:33:52.843Z,69.83
2016-11-24T11:34:53.170Z,70.21
2016-11-24T11:35:53.191Z,70.12
2016-11-24T11:36:53.210Z,70.02
2016-11-24T11:37:52.907Z,69.64
2016-11-24T11:38:53.242Z,69.54
2016-11-24T11:39:52.944Z,69.45
2016-11-24T11:40:52.964Z,69.87
2016-11-24T11:41:53.313Z,68.82
2016-11-24T11:42:53.016Z,68.91
2016-11-24T11:43:53.015Z,68.82
2016-11-24T11:44:53.035Z,68.53
2016-11-24T11:45:53.052Z,68.05
2016-11-24T11:46:53.386Z,67.77
2016-11-24T11:47:53.402Z,68.44
2016-11-24T11:48:53.122Z,68.82
2016-11-24T11:49:53.134Z,68.72
2016-11-24T11:50:53.140Z,68.82
2016-11-24T11:51:53.161Z,68.82
2016-11-24T11:52:53.495Z,68.15
2016-11-24T11:53:53.197Z,67.77
2016-11-24T11:54:53.213Z,67.48
2016-11-24T11:55:53.548Z,67.39
2016-11-24T11:56:53.566Z,67.48
2016-11-24T11:57:53.306Z,68.34
2016-11-24T11:58:53.284Z,68.24
2016-11-24T11:59:53.305Z,68.44
2016-11-24T12:00:53.324Z,68.44
2016-11-24T12:01:53.346Z,68.34
2016-11-24T12:02:53.361Z,67.77
2016-11-24T12:03:53.375Z,67.48
2016-11-24T12:04:53.416Z,67.77
2016-11-24T12:05:53.412Z,67.1
2016-11-24T12:06:53.432Z,67.29
2016-11-24T12:07:53.764Z,67.68
2016-11-24T12:08:53.782Z,67.58
2016-11-24T12:09:53.801Z,67
2016-11-24T12:10:53.501Z,66.63
2016-11-24T12:11:53.841Z,67
2016-11-24T12:12:53.540Z,67.2
2016-11-24T12:13:53.557Z,67.77
2016-11-24T12:14:53.582Z,67.48
2016-11-24T12:15:53.592Z,67.77
2016-11-24T12:16:53.927Z,67.29
2016-11-24T12:17:53.633Z,67.1
2016-11-24T12:18:53.650Z,67.77
2016-11-24T12:19:53.983Z,67.77
2016-11-24T12:20:53.685Z,67.86
2016-11-24T12:21:53.703Z,67.77
2016-11-24T12:22:53.721Z,67.2
2016-11-24T12:23:53.740Z,67.86
2016-11-24T12:24:53.757Z,67.58
2016-11-24T12:25:53.777Z,67.58
2016-11-24T12:26:53.796Z,67.29
2016-11-24T12:27:53.811Z,67.29
2016-11-24T12:28:54.146Z,67.2
2016-11-24T12:29:53.847Z,67.23
2016-11-24T12:30:53.867Z,67.61
2016-11-24T12:31:53.885Z,67.52
2016-11-24T12:32:53.904Z,66.75
2016-11-24T12:33:53.921Z,66.91
2016-11-24T12:34:53.940Z,67.96
2016-11-24T12:35:54.273Z,67.33
2016-11-24T12:36:53.974Z,67.52
2016-11-24T12:37:54.308Z,67.48
2016-11-24T12:38:54.013Z,67.68
2016-11-24T12:39:54.030Z,67.68
2016-11-24T12:40:54.050Z,67.14
2016-11-24T12:41:54.066Z,67.29
2016-11-24T12:42:54.085Z,67.68
2016-11-24T12:43:54.103Z,67.29
2016-11-24T12:44:54.121Z,67.39
2016-11-24T12:45:54.453Z,67.77
2016-11-24T12:46:54.157Z,67.33
2016-11-24T12:47:54.496Z,67.68
2016-11-24T12:48:54.190Z,68.05
2016-11-24T12:49:54.213Z,67.9
2016-11-24T12:50:54.232Z,67.8
2016-11-24T12:51:54.249Z,67.33
2016-11-24T12:52:54.581Z,66.75
2016-11-24T12:53:54.598Z,66.94
2016-11-24T12:54:54.303Z,67.04
2016-11-24T12:55:54.637Z,66.94